sensor_id;sensor_type;location;lat;lon;timestamp;temperature;humidity
10662;DHT22;5379;51.034;7.006;2023-04-01T04:32:37;14.90;99.90
10662;DHT22;5379;51.034;7.006;2023-04-01T04:35:04;15.10;99.90
10662;DHT22;5379;51.034;7.006;2023-04-01T04:37:32;14.90;99.90
10662;DHT22;5379;51.034;7.006;2023-04-01T04:39:59;14.90;99.90
10662;DHT22;5379;51.034;7.006;2023-04-01T04:42:26;14.90;99.90
10662;DHT22;5379;51.034;7.006;2023-04-01T04:44:53;14.90;99.90
10662;DHT22;5379;51.034;7.006;2023-04-01T04:47:20;15.00;99.90
10662;DHT22;5379;51.034;7.006;2023-04-01T04:49:48;14.80;99.90
10662;DHT22;5379;51.034;7.006;2023-04-01T04:52:15;14.90;99.90
10662;DHT22;5379;51.034;7.006;2023-04-01T04:54:42;15.00;99.90
10662;DHT22;5379;51.034;7.006;2023-04-01T04:57:09;14.90;99.90
10662;DHT22;5379;51.034;7.006;2023-04-01T04:59:36;14.70;99.90
10662;DHT22;5379;51.034;7.006;2023-04-01T05:02:03;14.60;99.90
10662;DHT22;5379;51.034;7.006;2023-04-01T05:04:33;14.60;99.90
10662;DHT22;5379;51.034;7.006;2023-04-01T05:07:02;14.30;99.90
10662;DHT22;5379;51.034;7.006;2023-04-01T05:09:28;14.40;99.90
10662;DHT22;5379;51.034;7.006;2023-04-01T05:11:56;14.30;99.90
10662;DHT22;5379;51.034;7.006;2023-04-01T05:14:23;14.40;99.90
10662;DHT22;5379;51.034;7.006;2023-04-01T05:16:50;14.50;99.90
10662;DHT22;5379;51.034;7.006;2023-04-01T05:19:17;14.60;99.90
10662;DHT22;5379;51.034;7.006;2023-04-01T05:21:44;14.50;99.90
10662;DHT22;5379;51.034;7.006;2023-04-01T05:24:12;14.60;99.90
10662;DHT22;5379;51.034;7.006;2023-04-01T05:26:39;14.50;99.90
10662;DHT22;5379;51.034;7.006;2023-04-01T05:29:06;14.60;99.90
10662;DHT22;5379;51.034;7.006;2023-04-01T05:31:33;14.60;99.90
10662;DHT22;5379;51.034;7.006;2023-04-01T05:34:00;14.60;99.90
10662;DHT22;5379;51.034;7.006;2023-04-01T05:36:27;14.70;99.90
10662;DHT22;5379;51.034;7.006;2023-04-01T05:38:55;14.90;99.90
10662;DHT22;5379;51.034;7.006;2023-04-01T05:41:23;14.80;99.90
10662;DHT22;5379;51.034;7.006;2023-04-01T05:43:50;14.80;99.90
10662;DHT22;5379;51.034;7.006;2023-04-01T05:46:17;14.70;99.90
10662;DHT22;5379;51.034;7.006;2023-04-01T05:48:44;14.60;99.90
10662;DHT22;5379;51.034;7.006;2023-04-01T05:51:13;15.00;99.90
10662;DHT22;5379;51.034;7.006;2023-04-01T05:53:40;14.90;99.90
10662;DHT22;5379;51.034;7.006;2023-04-01T05:56:07;15.40;99.90
10662;DHT22;5379;51.034;7.006;2023-04-01T05:58:36;15.70;99.90
10662;DHT22;5379;51.034;7.006;2023-04-01T06:01:05;15.50;99.90
10662;DHT22;5379;51.034;7.006;2023-04-01T06:03:32;15.10;99.90
10662;DHT22;5379;51.034;7.006;2023-04-01T06:05:59;14.80;99.90
10662;DHT22;5379;51.034;7.006;2023-04-01T06:08:27;14.60;99.90
10662;DHT22;5379;51.034;7.006;2023-04-01T06:11:05;14.30;99.90
10662;DHT22;5379;51.034;7.006;2023-04-01T06:13:51;14.30;99.90
10662;DHT22;5379;51.034;7.006;2023-04-01T06:16:27;14.30;99.90
10662;DHT22;5379;51.034;7.006;2023-04-01T06:19:05;14.40;99.90
10662;DHT22;5379;51.034;7.006;2023-04-01T06:25:09;14.60;99.90
10662;DHT22;5379;51.034;7.006;2023-04-01T06:27:52;14.70;99.90
10662;DHT22;5379;51.034;7.006;2023-04-01T06:30:35;14.60;99.90
10662;DHT22;5379;51.034;7.006;2023-04-01T06:33:22;14.60;99.90
10662;DHT22;5379;51.034;7.006;2023-04-01T06:36:11;14.80;99.90
10662;DHT22;5379;51.034;7.006;2023-04-01T06:38:50;15.00;99.90
10662;DHT22;5379;51.034;7.006;2023-04-01T06:41:37;14.90;99.90
10662;DHT22;5379;51.034;7.006;2023-04-01T06:44:14;15.00;99.90
10662;DHT22;5379;51.034;7.006;2023-04-01T06:46:48;15.20;99.90
10662;DHT22;5379;51.034;7.006;2023-04-01T06:49:34;15.20;99.90
10662;DHT22;5379;51.034;7.006;2023-04-01T06:52:08;15.20;99.90
10662;DHT22;5379;51.034;7.006;2023-04-01T06:54:42;14.80;99.90
10662;DHT22;5379;51.034;7.006;2023-04-01T06:57:23;14.90;99.90
10662;DHT22;5379;51.034;7.006;2023-04-01T06:59:54;15.00;99.90
10662;DHT22;5379;51.034;7.006;2023-04-01T07:02:32;15.10;99.90
10662;DHT22;5379;51.034;7.006;2023-04-01T07:05:02;15.40;99.90
10662;DHT22;5379;51.034;7.006;2023-04-01T07:07:34;15.40;99.90
10662;DHT22;5379;51.034;7.006;2023-04-01T07:10:05;15.60;99.90
10662;DHT22;5379;51.034;7.006;2023-04-01T07:12:43;15.70;99.90
10662;DHT22;5379;51.034;7.006;2023-04-01T07:15:17;15.60;99.90
10662;DHT22;5379;51.034;7.006;2023-04-01T07:17:48;15.40;99.90
10662;DHT22;5379;51.034;7.006;2023-04-01T07:20:22;15.30;99.90
10662;DHT22;5379;51.034;7.006;2023-04-01T07:22:53;15.30;99.90
10662;DHT22;5379;51.034;7.006;2023-04-01T07:25:24;15.20;99.90
10662;DHT22;5379;51.034;7.006;2023-04-01T07:27:53;15.60;99.90
10662;DHT22;5379;51.034;7.006;2023-04-01T07:30:24;15.90;99.90
10662;DHT22;5379;51.034;7.006;2023-04-01T07:33:01;16.20;99.90
10662;DHT22;5379;51.034;7.006;2023-04-01T07:35:33;16.30;99.90
10662;DHT22;5379;51.034;7.006;2023-04-01T07:38:15;16.50;99.90
10662;DHT22;5379;51.034;7.006;2023-04-01T07:40:49;17.00;99.90
10662;DHT22;5379;51.034;7.006;2023-04-01T07:43:49;16.80;99.90
10662;DHT22;5379;51.034;7.006;2023-04-01T07:46:27;16.60;99.90
10662;DHT22;5379;51.034;7.006;2023-04-01T07:49:02;16.70;99.90
10662;DHT22;5379;51.034;7.006;2023-04-01T07:51:36;16.50;99.90
10662;DHT22;5379;51.034;7.006;2023-04-01T07:54:08;16.10;99.90
10662;DHT22;5379;51.034;7.006;2023-04-01T07:56:42;15.80;99.90
10662;DHT22;5379;51.034;7.006;2023-04-01T07:59:17;15.50;99.90
10662;DHT22;5379;51.034;7.006;2023-04-01T08:01:50;15.70;99.90
10662;DHT22;5379;51.034;7.006;2023-04-01T08:04:34;15.90;99.90
10662;DHT22;5379;51.034;7.006;2023-04-01T08:07:09;16.20;99.90
10662;DHT22;5379;51.034;7.006;2023-04-01T08:09:42;16.40;99.90
10662;DHT22;5379;51.034;7.006;2023-04-01T08:12:25;16.80;99.90
10662;DHT22;5379;51.034;7.006;2023-04-01T08:15:04;16.90;99.90
10662;DHT22;5379;51.034;7.006;2023-04-01T08:17:39;16.90;99.90
10662;DHT22;5379;51.034;7.006;2023-04-01T08:20:29;16.60;99.90
10662;DHT22;5379;51.034;7.006;2023-04-01T08:23:03;16.60;99.90
10662;DHT22;5379;51.034;7.006;2023-04-01T08:25:34;16.70;99.90
10662;DHT22;5379;51.034;7.006;2023-04-01T08:28:10;16.90;99.90
10662;DHT22;5379;51.034;7.006;2023-04-01T08:30:43;17.50;99.90
10662;DHT22;5379;51.034;7.006;2023-04-01T08:33:16;17.40;99.90
10662;DHT22;5379;51.034;7.006;2023-04-01T08:35:48;16.90;99.90
10662;DHT22;5379;51.034;7.006;2023-04-01T08:38:19;16.20;99.90
10662;DHT22;5379;51.034;7.006;2023-04-01T08:41:11;15.80;99.90
10662;DHT22;5379;51.034;7.006;2023-04-01T08:44:04;15.60;99.90
10662;DHT22;5379;51.034;7.006;2023-04-01T08:50:21;15.50;99.90
10662;DHT22;5379;51.034;7.006;2023-04-01T08:52:58;15.50;99.90
10662;DHT22;5379;51.034;7.006;2023-04-01T08:55:38;15.60;99.90
10662;DHT22;5379;51.034;7.006;2023-04-01T08:58:37;15.60;99.90
10662;DHT22;5379;51.034;7.006;2023-04-01T09:01:14;15.70;99.90
10662;DHT22;5379;51.034;7.006;2023-04-01T09:03:58;15.90;99.90
10662;DHT22;5379;51.034;7.006;2023-04-01T09:06:39;16.30;99.90
10662;DHT22;5379;51.034;7.006;2023-04-01T09:09:32;16.10;99.90
10662;DHT22;5379;51.034;7.006;2023-04-01T09:12:18;16.30;99.90
10662;DHT22;5379;51.034;7.006;2023-04-01T09:15:01;16.30;99.90
10662;DHT22;5379;51.034;7.006;2023-04-01T09:17:51;15.90;99.90
10662;DHT22;5379;51.034;7.006;2023-04-01T09:20:46;16.20;99.90
10662;DHT22;5379;51.034;7.006;2023-04-01T09:23:38;16.00;99.90
10662;DHT22;5379;51.034;7.006;2023-04-01T09:26:42;15.90;99.90
10662;DHT22;5379;51.034;7.006;2023-04-01T09:29:20;16.20;99.90
10662;DHT22;5379;51.034;7.006;2023-04-01T09:32:09;16.50;99.90
10662;DHT22;5379;51.034;7.006;2023-04-01T09:34:52;16.50;99.90
10662;DHT22;5379;51.034;7.006;2023-04-01T09:37:21;16.20;99.90
10662;DHT22;5379;51.034;7.006;2023-04-01T09:40:11;16.40;99.90
10662;DHT22;5379;51.034;7.006;2023-04-01T09:43:03;16.80;99.90
10662;DHT22;5379;51.034;7.006;2023-04-01T09:45:41;16.70;99.90
10662;DHT22;5379;51.034;7.006;2023-04-01T09:48:19;17.10;99.90
10662;DHT22;5379;51.034;7.006;2023-04-01T09:50:54;17.50;99.90
10662;DHT22;5379;51.034;7.006;2023-04-01T09:53:39;19.30;99.90
10662;DHT22;5379;51.034;7.006;2023-04-01T09:56:33;18.30;99.90
10662;DHT22;5379;51.034;7.006;2023-04-01T10:02:33;18.90;99.90
10662;DHT22;5379;51.034;7.006;2023-04-01T10:11:56;18.90;99.90
10662;DHT22;5379;51.034;7.006;2023-04-01T10:14:59;18.40;99.90
10662;DHT22;5379;51.034;7.006;2023-04-01T10:17:56;18.20;99.90
10662;DHT22;5379;51.034;7.006;2023-04-01T10:20:54;17.80;99.90
10662;DHT22;5379;51.034;7.006;2023-04-01T10:23:29;18.40;99.90
10662;DHT22;5379;51.034;7.006;2023-04-01T10:26:36;18.20;99.90
10662;DHT22;5379;51.034;7.006;2023-04-01T10:29:30;18.70;99.90
10662;DHT22;5379;51.034;7.006;2023-04-01T10:35:48;19.10;99.90
10662;DHT22;5379;51.034;7.006;2023-04-01T10:38:56;18.70;99.90
10662;DHT22;5379;51.034;7.006;2023-04-01T10:42:00;18.10;99.90
10662;DHT22;5379;51.034;7.006;2023-04-01T10:44:54;17.50;99.90
10662;DHT22;5379;51.034;7.006;2023-04-01T10:50:30;16.60;99.90
10662;DHT22;5379;51.034;7.006;2023-04-01T10:59:21;18.10;99.90
10662;DHT22;5379;51.034;7.006;2023-04-01T11:05:31;18.30;99.90
10662;DHT22;5379;51.034;7.006;2023-04-01T11:08:22;17.80;99.90
10662;DHT22;5379;51.034;7.006;2023-04-01T11:11:23;17.70;99.90
10662;DHT22;5379;51.034;7.006;2023-04-01T11:14:17;18.30;99.90
10662;DHT22;5379;51.034;7.006;2023-04-01T11:23:19;17.60;99.90
10662;DHT22;5379;51.034;7.006;2023-04-01T11:26:01;18.10;99.90
10662;DHT22;5379;51.034;7.006;2023-04-01T11:28:49;18.80;99.90
10662;DHT22;5379;51.034;7.006;2023-04-01T11:31:32;19.20;99.90
10662;DHT22;5379;51.034;7.006;2023-04-01T11:34:09;19.10;99.90
10662;DHT22;5379;51.034;7.006;2023-04-01T11:36:46;19.10;99.90
10662;DHT22;5379;51.034;7.006;2023-04-01T11:39:27;19.40;99.90
10662;DHT22;5379;51.034;7.006;2023-04-01T11:42:03;19.50;99.90
10662;DHT22;5379;51.034;7.006;2023-04-01T11:44:39;19.70;99.00
10662;DHT22;5379;51.034;7.006;2023-04-01T11:47:44;19.70;99.90
10662;DHT22;5379;51.034;7.006;2023-04-01T11:50:33;19.90;99.70
10662;DHT22;5379;51.034;7.006;2023-04-01T11:53:13;19.90;99.90
10662;DHT22;5379;51.034;7.006;2023-04-01T11:55:54;20.20;99.90
10662;DHT22;5379;51.034;7.006;2023-04-01T12:01:30;20.00;99.90
10662;DHT22;5379;51.034;7.006;2023-04-01T12:07:29;20.10;99.90
10662;DHT22;5379;51.034;7.006;2023-04-01T12:10:03;20.20;99.10
10662;DHT22;5379;51.034;7.006;2023-04-01T12:12:45;20.30;99.90
10662;DHT22;5379;51.034;7.006;2023-04-01T12:15:22;20.10;99.50
10662;DHT22;5379;51.034;7.006;2023-04-01T12:17:55;19.60;99.90
10662;DHT22;5379;51.034;7.006;2023-04-01T12:20:33;19.90;99.90
10662;DHT22;5379;51.034;7.006;2023-04-01T12:23:13;20.00;99.90
10662;DHT22;5379;51.034;7.006;2023-04-01T12:26:04;20.10;99.90
10662;DHT22;5379;51.034;7.006;2023-04-01T12:28:41;20.30;99.90
10662;DHT22;5379;51.034;7.006;2023-04-01T12:31:23;20.60;99.90
10662;DHT22;5379;51.034;7.006;2023-04-01T12:34:15;20.10;99.20
10662;DHT22;5379;51.034;7.006;2023-04-01T12:36:57;20.20;99.90
10662;DHT22;5379;51.034;7.006;2023-04-01T12:39:40;20.30;99.90
10662;DHT22;5379;51.034;7.006;2023-04-01T12:42:20;20.30;99.90
10662;DHT22;5379;51.034;7.006;2023-04-01T12:45:02;20.50;99.70
10662;DHT22;5379;51.034;7.006;2023-04-01T12:47:58;20.40;99.90
10662;DHT22;5379;51.034;7.006;2023-04-01T12:50:45;20.00;99.90
10662;DHT22;5379;51.034;7.006;2023-04-01T12:53:27;19.80;99.90
10662;DHT22;5379;51.034;7.006;2023-04-01T12:55:59;19.40;99.20
10662;DHT22;5379;51.034;7.006;2023-04-01T12:58:55;18.70;99.90
10662;DHT22;5379;51.034;7.006;2023-04-01T13:01:41;18.70;99.90
10662;DHT22;5379;51.034;7.006;2023-04-01T13:04:38;18.60;99.90
10662;DHT22;5379;51.034;7.006;2023-04-01T13:07:28;18.70;99.90
10662;DHT22;5379;51.034;7.006;2023-04-01T13:10:02;18.70;99.90
10662;DHT22;5379;51.034;7.006;2023-04-01T13:12:50;19.00;99.90
10662;DHT22;5379;51.034;7.006;2023-04-01T13:15:32;19.40;99.90
10662;DHT22;5379;51.034;7.006;2023-04-01T13:18:14;19.70;99.90
10662;DHT22;5379;51.034;7.006;2023-04-01T13:20:48;19.90;99.90
10662;DHT22;5379;51.034;7.006;2023-04-01T13:23:35;20.00;99.90
10662;DHT22;5379;51.034;7.006;2023-04-01T13:26:13;19.90;99.90
10662;DHT22;5379;51.034;7.006;2023-04-01T13:28:49;20.20;99.90
10662;DHT22;5379;51.034;7.006;2023-04-01T13:31:31;19.80;98.80
10662;DHT22;5379;51.034;7.006;2023-04-01T13:34:15;18.80;99.90
10662;DHT22;5379;51.034;7.006;2023-04-01T13:36:55;17.90;99.90
10662;DHT22;5379;51.034;7.006;2023-04-01T13:39:40;17.40;99.90
10662;DHT22;5379;51.034;7.006;2023-04-01T13:42:17;17.80;99.90
10662;DHT22;5379;51.034;7.006;2023-04-01T13:44:47;18.00;99.90
10662;DHT22;5379;51.034;7.006;2023-04-01T13:47:49;18.50;99.90
10662;DHT22;5379;51.034;7.006;2023-04-01T13:50:43;18.50;99.90
10662;DHT22;5379;51.034;7.006;2023-04-01T13:53:36;18.70;99.90
10662;DHT22;5379;51.034;7.006;2023-04-01T13:56:16;18.80;99.90
10662;DHT22;5379;51.034;7.006;2023-04-01T13:59:03;19.00;99.90
10662;DHT22;5379;51.034;7.006;2023-04-01T14:01:40;17.50;99.90
10662;DHT22;5379;51.034;7.006;2023-04-01T14:07:32;17.60;99.90
10662;DHT22;5379;51.034;7.006;2023-04-01T14:10:08;17.20;99.90
10662;DHT22;5379;51.034;7.006;2023-04-01T14:12:46;17.60;99.90
10662;DHT22;5379;51.034;7.006;2023-04-01T14:15:29;17.70;99.90
10662;DHT22;5379;51.034;7.006;2023-04-01T14:18:16;17.80;99.90
10662;DHT22;5379;51.034;7.006;2023-04-01T14:20:48;17.90;99.90
10662;DHT22;5379;51.034;7.006;2023-04-01T14:23:49;17.80;99.90
10662;DHT22;5379;51.034;7.006;2023-04-01T14:29:32;17.70;99.90
10662;DHT22;5379;51.034;7.006;2023-04-01T14:32:10;17.70;99.90
10662;DHT22;5379;51.034;7.006;2023-04-01T14:34:59;17.30;99.90
10662;DHT22;5379;51.034;7.006;2023-04-01T14:38:12;17.50;99.90
10662;DHT22;5379;51.034;7.006;2023-04-01T14:40:54;17.60;99.90
10662;DHT22;5379;51.034;7.006;2023-04-01T14:49:34;17.50;99.90
10662;DHT22;5379;51.034;7.006;2023-04-01T14:52:09;17.30;99.90
10662;DHT22;5379;51.034;7.006;2023-04-01T14:54:39;17.60;99.90
10662;DHT22;5379;51.034;7.006;2023-04-01T14:57:12;17.80;99.90
10662;DHT22;5379;51.034;7.006;2023-04-01T14:59:45;17.90;99.90
10662;DHT22;5379;51.034;7.006;2023-04-01T15:02:28;18.40;99.90
10662;DHT22;5379;51.034;7.006;2023-04-01T15:05:05;18.10;99.90
10662;DHT22;5379;51.034;7.006;2023-04-01T15:10:42;18.80;99.90
10662;DHT22;5379;51.034;7.006;2023-04-01T15:13:16;19.00;99.90
10662;DHT22;5379;51.034;7.006;2023-04-01T15:15:57;18.70;99.90
10662;DHT22;5379;51.034;7.006;2023-04-01T15:18:33;18.70;99.90
10662;DHT22;5379;51.034;7.006;2023-04-01T15:21:21;19.00;99.90
10662;DHT22;5379;51.034;7.006;2023-04-01T15:23:57;19.60;99.90
10662;DHT22;5379;51.034;7.006;2023-04-01T15:26:46;20.10;99.90
10662;DHT22;5379;51.034;7.006;2023-04-01T15:29:34;20.20;99.90
10662;DHT22;5379;51.034;7.006;2023-04-01T15:32:16;20.30;99.90
10662;DHT22;5379;51.034;7.006;2023-04-01T15:34:50;20.50;99.90
10662;DHT22;5379;51.034;7.006;2023-04-01T15:37:29;20.80;99.90
10662;DHT22;5379;51.034;7.006;2023-04-01T15:40:11;21.00;99.90
10662;DHT22;5379;51.034;7.006;2023-04-01T15:42:52;20.90;99.90
10662;DHT22;5379;51.034;7.006;2023-04-01T15:45:33;21.10;99.90
10662;DHT22;5379;51.034;7.006;2023-04-01T15:48:13;20.90;99.90
10662;DHT22;5379;51.034;7.006;2023-04-01T15:50:54;20.90;97.90
10662;DHT22;5379;51.034;7.006;2023-04-01T15:53:37;20.80;99.20
10662;DHT22;5379;51.034;7.006;2023-04-01T15:56:19;20.90;99.60
10662;DHT22;5379;51.034;7.006;2023-04-01T15:58:53;21.00;99.90
10662;DHT22;5379;51.034;7.006;2023-04-01T16:01:34;20.70;98.00
10662;DHT22;5379;51.034;7.006;2023-04-01T16:04:17;20.20;99.90
10662;DHT22;5379;51.034;7.006;2023-04-01T16:07:02;20.10;99.30
10662;DHT22;5379;51.034;7.006;2023-04-01T16:09:47;19.40;99.70
10662;DHT22;5379;51.034;7.006;2023-04-01T16:12:21;19.20;99.90
10662;DHT22;5379;51.034;7.006;2023-04-01T16:15:08;18.50;99.90
10662;DHT22;5379;51.034;7.006;2023-04-01T16:17:49;18.90;99.90
10662;DHT22;5379;51.034;7.006;2023-04-01T16:20:23;19.20;99.90
10662;DHT22;5379;51.034;7.006;2023-04-01T16:22:56;19.10;99.90
10662;DHT22;5379;51.034;7.006;2023-04-01T16:25:32;18.60;99.90
10662;DHT22;5379;51.034;7.006;2023-04-01T16:28:13;18.00;99.90
10662;DHT22;5379;51.034;7.006;2023-04-01T16:30:45;17.20;99.90
10662;DHT22;5379;51.034;7.006;2023-04-01T16:33:21;16.80;99.90
10662;DHT22;5379;51.034;7.006;2023-04-01T16:35:54;17.00;99.90
10662;DHT22;5379;51.034;7.006;2023-04-01T16:38:31;17.40;99.90
10662;DHT22;5379;51.034;7.006;2023-04-01T16:41:10;17.40;99.90
10662;DHT22;5379;51.034;7.006;2023-04-01T16:43:42;18.00;99.90
10662;DHT22;5379;51.034;7.006;2023-04-01T16:46:33;17.90;99.90
10662;DHT22;5379;51.034;7.006;2023-04-01T16:51:54;18.50;99.90
10662;DHT22;5379;51.034;7.006;2023-04-01T16:54:28;18.00;99.90
10662;DHT22;5379;51.034;7.006;2023-04-01T16:57:10;17.50;99.90
10662;DHT22;5379;51.034;7.006;2023-04-01T16:59:46;16.90;99.90
10662;DHT22;5379;51.034;7.006;2023-04-01T17:02:16;16.40;99.90
10662;DHT22;5379;51.034;7.006;2023-04-01T17:04:48;16.20;99.90
10662;DHT22;5379;51.034;7.006;2023-04-01T17:07:23;16.50;99.90
10662;DHT22;5379;51.034;7.006;2023-04-01T17:10:06;16.40;99.90
10662;DHT22;5379;51.034;7.006;2023-04-01T17:12:40;16.30;99.90
10662;DHT22;5379;51.034;7.006;2023-04-01T17:15:18;15.90;99.90
10662;DHT22;5379;51.034;7.006;2023-04-01T17:17:53;16.00;99.90
10662;DHT22;5379;51.034;7.006;2023-04-01T17:20:40;16.30;99.90
10662;DHT22;5379;51.034;7.006;2023-04-01T17:23:14;15.90;99.90
10662;DHT22;5379;51.034;7.006;2023-04-01T17:26:07;15.80;99.90
10662;DHT22;5379;51.034;7.006;2023-04-01T17:28:46;15.60;99.90
10662;DHT22;5379;51.034;7.006;2023-04-01T17:31:23;15.40;99.90
10662;DHT22;5379;51.034;7.006;2023-04-01T17:34:03;15.30;99.90
10662;DHT22;5379;51.034;7.006;2023-04-01T17:36:50;15.20;99.90
10662;DHT22;5379;51.034;7.006;2023-04-01T17:39:35;15.20;99.90
10662;DHT22;5379;51.034;7.006;2023-04-01T17:42:07;15.10;99.90
10662;DHT22;5379;51.034;7.006;2023-04-01T17:44:49;15.20;99.90
10662;DHT22;5379;51.034;7.006;2023-04-01T17:47:29;15.40;99.90
10662;DHT22;5379;51.034;7.006;2023-04-01T17:50:07;15.70;99.90
10662;DHT22;5379;51.034;7.006;2023-04-01T17:52:43;15.80;99.90
10662;DHT22;5379;51.034;7.006;2023-04-01T17:55:40;15.90;99.90
10662;DHT22;5379;51.034;7.006;2023-04-01T17:58:17;15.60;99.90
10662;DHT22;5379;51.034;7.006;2023-04-01T18:00:54;15.20;99.90
10662;DHT22;5379;51.034;7.006;2023-04-01T18:03:44;15.10;99.90
10662;DHT22;5379;51.034;7.006;2023-04-01T18:06:18;15.10;99.90
10662;DHT22;5379;51.034;7.006;2023-04-01T18:08:57;15.00;99.90
10662;DHT22;5379;51.034;7.006;2023-04-01T18:11:35;14.80;99.90
10662;DHT22;5379;51.034;7.006;2023-04-01T18:14:26;14.80;99.90
10662;DHT22;5379;51.034;7.006;2023-04-01T18:17:06;14.60;99.90
10662;DHT22;5379;51.034;7.006;2023-04-01T18:19:46;14.70;99.90
10662;DHT22;5379;51.034;7.006;2023-04-01T18:22:19;14.80;99.90
10662;DHT22;5379;51.034;7.006;2023-04-01T18:24:56;14.90;99.90
10662;DHT22;5379;51.034;7.006;2023-04-01T18:27:30;14.90;99.90
10662;DHT22;5379;51.034;7.006;2023-04-01T18:30:02;15.00;99.90
10662;DHT22;5379;51.034;7.006;2023-04-01T18:32:35;15.10;99.90
10662;DHT22;5379;51.034;7.006;2023-04-01T18:35:27;14.90;99.90
10662;DHT22;5379;51.034;7.006;2023-04-01T18:38:00;15.00;99.90
10662;DHT22;5379;51.034;7.006;2023-04-01T18:40:34;15.40;99.90
10662;DHT22;5379;51.034;7.006;2023-04-01T18:43:10;15.70;99.90
10662;DHT22;5379;51.034;7.006;2023-04-01T18:45:44;15.40;99.90
10662;DHT22;5379;51.034;7.006;2023-04-01T18:48:30;15.50;99.90
10662;DHT22;5379;51.034;7.006;2023-04-01T18:51:02;15.70;99.90
10662;DHT22;5379;51.034;7.006;2023-04-01T18:53:41;15.60;99.90
10662;DHT22;5379;51.034;7.006;2023-04-01T18:56:13;15.40;99.90
10662;DHT22;5379;51.034;7.006;2023-04-01T18:58:46;15.20;99.90
10662;DHT22;5379;51.034;7.006;2023-04-01T19:01:19;15.10;99.90
10662;DHT22;5379;51.034;7.006;2023-04-01T19:04:00;15.00;99.90
10662;DHT22;5379;51.034;7.006;2023-04-01T19:06:32;15.30;99.90
10662;DHT22;5379;51.034;7.006;2023-04-01T19:09:15;15.60;99.90
10662;DHT22;5379;51.034;7.006;2023-04-01T19:12:14;15.20;99.90
10662;DHT22;5379;51.034;7.006;2023-04-01T19:14:55;15.00;99.90
10662;DHT22;5379;51.034;7.006;2023-04-01T19:17:36;15.20;99.90
10662;DHT22;5379;51.034;7.006;2023-04-01T19:20:15;15.00;99.90
10662;DHT22;5379;51.034;7.006;2023-04-01T19:25:37;15.00;99.90
10662;DHT22;5379;51.034;7.006;2023-04-01T19:28:20;15.20;99.90
10662;DHT22;5379;51.034;7.006;2023-04-01T19:30:54;15.30;99.90
10662;DHT22;5379;51.034;7.006;2023-04-01T19:33:42;15.10;99.90
10662;DHT22;5379;51.034;7.006;2023-04-01T19:36:15;15.00;99.90
10662;DHT22;5379;51.034;7.006;2023-04-01T19:38:53;14.90;99.90
10662;DHT22;5379;51.034;7.006;2023-04-01T19:41:33;15.10;99.90
10662;DHT22;5379;51.034;7.006;2023-04-01T19:44:15;15.30;99.90
10662;DHT22;5379;51.034;7.006;2023-04-01T19:46:46;15.00;99.90
10662;DHT22;5379;51.034;7.006;2023-04-01T19:49:34;15.10;99.90
10662;DHT22;5379;51.034;7.006;2023-04-01T19:52:09;15.50;99.90
10662;DHT22;5379;51.034;7.006;2023-04-01T19:54:43;15.50;99.90
10662;DHT22;5379;51.034;7.006;2023-04-01T19:57:20;15.30;99.90
10662;DHT22;5379;51.034;7.006;2023-04-01T19:59:53;15.00;99.90
10662;DHT22;5379;51.034;7.006;2023-04-01T20:20:27;16.50;99.90
10662;DHT22;5379;51.034;7.006;2023-04-01T20:26:04;15.40;99.90
10662;DHT22;5379;51.034;7.006;2023-04-01T20:28:41;15.20;99.90
10662;DHT22;5379;51.034;7.006;2023-04-01T20:31:24;14.90;99.90
10662;DHT22;5379;51.034;7.006;2023-04-01T20:34:09;14.90;99.90
10662;DHT22;5379;51.034;7.006;2023-04-01T20:36:51;14.70;99.90
10662;DHT22;5379;51.034;7.006;2023-04-01T20:39:46;14.50;99.90
10662;DHT22;5379;51.034;7.006;2023-04-01T20:45:17;14.40;99.90
10662;DHT22;5379;51.034;7.006;2023-04-01T20:47:58;14.10;99.90
10662;DHT22;5379;51.034;7.006;2023-04-01T21:17:03;13.90;99.90
10662;DHT22;5379;51.034;7.006;2023-04-01T21:19:45;13.70;99.90
10662;DHT22;5379;51.034;7.006;2023-04-01T21:25:17;13.80;99.90
10662;DHT22;5379;51.034;7.006;2023-04-01T21:28:04;13.80;99.90
10662;DHT22;5379;51.034;7.006;2023-04-01T21:30:48;13.90;99.90
10662;DHT22;5379;51.034;7.006;2023-04-01T21:33:34;13.80;99.90
10662;DHT22;5379;51.034;7.006;2023-04-01T21:36:14;13.90;99.90
10662;DHT22;5379;51.034;7.006;2023-04-01T21:38:54;14.00;99.90
10662;DHT22;5379;51.034;7.006;2023-04-01T21:41:34;14.10;99.90
10662;DHT22;5379;51.034;7.006;2023-04-01T21:44:36;14.10;99.90
10662;DHT22;5379;51.034;7.006;2023-04-01T21:47:30;13.80;99.90
10662;DHT22;5379;51.034;7.006;2023-04-01T21:53:44;13.70;99.90
10662;DHT22;5379;51.034;7.006;2023-04-01T21:57:15;13.60;99.90
10662;DHT22;5379;51.034;7.006;2023-04-01T22:05:52;13.60;99.90
10662;DHT22;5379;51.034;7.006;2023-04-01T22:08:42;13.50;99.90
10662;DHT22;5379;51.034;7.006;2023-04-01T22:11:27;13.50;99.90
10662;DHT22;5379;51.034;7.006;2023-04-01T22:14:02;13.50;99.90
10662;DHT22;5379;51.034;7.006;2023-04-01T22:16:37;13.60;99.90
10662;DHT22;5379;51.034;7.006;2023-04-01T22:19:12;13.50;99.90
10662;DHT22;5379;51.034;7.006;2023-04-01T22:21:46;13.60;99.90
10662;DHT22;5379;51.034;7.006;2023-04-01T22:24:25;13.50;99.90
10662;DHT22;5379;51.034;7.006;2023-04-01T22:27:00;13.60;99.90
10662;DHT22;5379;51.034;7.006;2023-04-01T22:29:34;13.60;99.90
10662;DHT22;5379;51.034;7.006;2023-04-01T22:32:06;13.60;99.90
10662;DHT22;5379;51.034;7.006;2023-04-01T22:34:37;13.70;99.90
10662;DHT22;5379;51.034;7.006;2023-04-01T22:37:11;13.60;99.90
10662;DHT22;5379;51.034;7.006;2023-04-01T22:40:00;13.70;99.90
10662;DHT22;5379;51.034;7.006;2023-04-01T22:42:41;13.70;99.90
10662;DHT22;5379;51.034;7.006;2023-04-01T22:45:22;13.70;99.90
10662;DHT22;5379;51.034;7.006;2023-04-01T22:47:55;13.70;99.90
10662;DHT22;5379;51.034;7.006;2023-04-01T22:50:30;13.70;99.90
10662;DHT22;5379;51.034;7.006;2023-04-01T22:53:07;13.80;99.90
10662;DHT22;5379;51.034;7.006;2023-04-01T22:55:38;13.70;99.90
10662;DHT22;5379;51.034;7.006;2023-04-01T22:58:09;13.80;99.90
10662;DHT22;5379;51.034;7.006;2023-04-01T23:00:42;13.80;99.90
10662;DHT22;5379;51.034;7.006;2023-04-01T23:03:14;13.70;99.90
10662;DHT22;5379;51.034;7.006;2023-04-01T23:05:47;13.80;99.90
10662;DHT22;5379;51.034;7.006;2023-04-01T23:11:29;13.60;99.90
10662;DHT22;5379;51.034;7.006;2023-04-01T23:14:14;13.60;99.90
10662;DHT22;5379;51.034;7.006;2023-04-01T23:16:49;13.60;99.90
10662;DHT22;5379;51.034;7.006;2023-04-01T23:19:22;13.70;99.90
10662;DHT22;5379;51.034;7.006;2023-04-01T23:21:54;13.80;99.90
10662;DHT22;5379;51.034;7.006;2023-04-01T23:24:30;13.90;99.90
10662;DHT22;5379;51.034;7.006;2023-04-01T23:27:04;13.80;99.90
10662;DHT22;5379;51.034;7.006;2023-04-01T23:29:35;13.70;99.90
10662;DHT22;5379;51.034;7.006;2023-04-01T23:32:04;13.60;99.90
10662;DHT22;5379;51.034;7.006;2023-04-01T23:34:32;13.60;99.90
10662;DHT22;5379;51.034;7.006;2023-04-01T23:37:05;13.70;99.90
10662;DHT22;5379;51.034;7.006;2023-04-01T23:39:34;13.70;99.90
10662;DHT22;5379;51.034;7.006;2023-04-01T23:42:05;13.60;99.90
10662;DHT22;5379;51.034;7.006;2023-04-01T23:44:34;13.40;99.90